createdAt,value
2023-07-21T00:01:14.301Z,28.40
2023-07-21T00:03:42.986Z,28.90
2023-07-21T00:06:11.454Z,28.90
2023-07-21T00:08:40.927Z,28.90
2023-07-21T00:11:10.857Z,29.00
2023-07-21T00:13:41.326Z,29.10
2023-07-21T00:16:10.367Z,28.80
2023-07-21T00:18:41.280Z,28.80
2023-07-21T00:21:11.466Z,28.70
2023-07-21T00:23:38.968Z,29.20
2023-07-21T00:26:08.982Z,29.60
2023-07-21T00:28:37.692Z,29.70
2023-07-21T00:31:07.338Z,29.70
2023-07-21T00:33:36.376Z,29.90
2023-07-21T00:36:06.288Z,30.00
2023-07-21T00:38:36.066Z,30.40
2023-07-21T00:41:04.905Z,30.40
2023-07-21T00:43:33.878Z,30.50
2023-07-21T00:46:02.982Z,30.10
2023-07-21T00:48:31.155Z,30.40
2023-07-21T00:50:59.404Z,30.50
2023-07-21T00:53:28.858Z,30.20
2023-07-21T00:55:57.353Z,30.30
2023-07-21T00:58:26.604Z,30.00
2023-07-21T01:00:53.671Z,30.00
2023-07-21T01:03:23.082Z,29.80
2023-07-21T01:05:55.750Z,29.60
2023-07-21T01:08:25.286Z,30.00
2023-07-21T01:10:52.867Z,29.90
2023-07-21T01:13:23.079Z,29.90
2023-07-21T01:15:54.803Z,30.10
2023-07-21T01:18:26.727Z,29.80
2023-07-21T01:20:57.117Z,29.60
2023-07-21T01:24:05.080Z,29.80
2023-07-21T01:26:37.057Z,29.50
2023-07-21T01:29:09.948Z,29.30
2023-07-21T01:31:41.705Z,29.20
2023-07-21T01:34:12.619Z,29.10
2023-07-21T01:36:41.667Z,29.10
2023-07-21T01:39:11.377Z,28.90
2023-07-21T01:41:40.759Z,28.90
2023-07-21T01:44:09.823Z,28.80
2023-07-21T01:46:38.790Z,28.70
2023-07-21T01:49:07.470Z,29.00
2023-07-21T01:51:37.017Z,29.50
2023-07-21T01:54:10.124Z,29.70
2023-07-21T01:56:44.748Z,29.80
2023-07-21T01:59:13.657Z,30.00
2023-07-21T02:01:41.809Z,30.00
2023-07-21T02:04:09.092Z,29.70
2023-07-21T02:06:36.758Z,29.90
2023-07-21T02:09:04.694Z,30.20
2023-07-21T02:11:32.108Z,30.70
2023-07-21T02:13:59.500Z,31.50
2023-07-21T02:16:27.416Z,32.10
2023-07-21T02:18:55.715Z,32.80
2023-07-21T02:21:22.643Z,32.80
2023-07-21T02:23:49.777Z,33.10
2023-07-21T02:26:16.922Z,33.20
2023-07-21T02:28:43.903Z,33.10
2023-07-21T02:31:10.921Z,32.90
2023-07-21T02:33:38.040Z,32.70
2023-07-21T02:36:08.349Z,32.40
2023-07-21T02:38:35.371Z,32.20
2023-07-21T02:41:04.650Z,31.90
2023-07-21T02:43:32.734Z,32.50
2023-07-21T02:45:59.854Z,32.20
2023-07-21T02:48:26.861Z,32.00
2023-07-21T02:50:57.102Z,32.50
2023-07-21T02:53:24.708Z,33.30
2023-07-21T02:55:51.951Z,33.20
2023-07-21T02:58:19.149Z,32.90
2023-07-21T03:00:46.509Z,32.80
2023-07-21T03:03:14.080Z,32.40
2023-07-21T03:05:42.459Z,32.20
2023-07-21T03:08:10.287Z,32.50
2023-07-21T03:10:37.263Z,32.70
2023-07-21T03:13:04.242Z,33.70
2023-07-21T03:15:31.178Z,33.90
2023-07-21T03:17:58.160Z,33.60
2023-07-21T03:20:26.368Z,33.20
2023-07-21T03:22:53.894Z,33.20
2023-07-21T03:25:20.906Z,33.50
2023-07-21T03:27:48.060Z,34.10
2023-07-21T03:30:15.854Z,34.30
2023-07-21T03:32:47.112Z,34.30
2023-07-21T03:35:14.293Z,34.10
2023-07-21T03:37:41.303Z,34.50
2023-07-21T03:40:08.962Z,34.50
2023-07-21T03:42:36.288Z,34.40
2023-07-21T03:45:08.247Z,34.00
2023-07-21T03:47:36.809Z,34.00
2023-07-21T03:50:05.503Z,33.20
2023-07-21T03:52:32.619Z,32.70
2023-07-21T03:54:59.613Z,32.20
2023-07-21T03:57:27.241Z,32.00
2023-07-21T03:59:54.268Z,32.30
2023-07-21T04:02:21.460Z,33.30
2023-07-21T04:04:49.966Z,33.80
2023-07-21T04:07:17.458Z,33.60
2023-07-21T04:09:46.180Z,34.10
2023-07-21T04:12:13.106Z,34.10
2023-07-21T04:14:40.080Z,33.50
2023-07-21T04:17:06.977Z,33.20
2023-07-21T04:19:33.991Z,32.80
2023-07-21T04:22:01.760Z,33.50
2023-07-21T04:24:28.770Z,34.40
2023-07-21T04:26:55.869Z,34.70
2023-07-21T04:29:35.548Z,34.50
2023-07-21T04:32:04.168Z,34.60
2023-07-21T04:34:32.218Z,34.60
2023-07-21T04:36:59.341Z,35.20
2023-07-21T04:39:26.232Z,34.80
2023-07-21T04:41:53.208Z,35.00
2023-07-21T04:44:21.288Z,34.50
2023-07-21T04:46:48.826Z,32.90
2023-07-21T04:49:15.975Z,32.20
2023-07-21T04:51:42.877Z,31.40
2023-07-21T04:54:09.846Z,31.00
2023-07-21T04:56:36.845Z,30.60
2023-07-21T04:59:03.828Z,30.30
2023-07-21T05:01:32.539Z,30.10
2023-07-21T05:03:59.653Z,29.80
2023-07-21T05:06:27.512Z,29.90
2023-07-21T05:08:54.680Z,30.00
2023-07-21T05:11:21.621Z,30.30
2023-07-21T05:13:49.717Z,30.20
2023-07-21T05:16:16.744Z,30.60
2023-07-21T05:18:43.791Z,30.40
2023-07-21T05:21:10.747Z,30.70
2023-07-21T05:23:37.686Z,30.50
2023-07-21T05:26:04.922Z,30.00
2023-07-21T05:28:32.158Z,30.00
2023-07-21T05:30:59.364Z,30.40
2023-07-21T05:33:26.302Z,31.00
2023-07-21T05:35:53.258Z,31.40
2023-07-21T05:38:20.442Z,31.20
2023-07-21T05:40:59.101Z,30.70
2023-07-21T05:43:26.546Z,30.10
2023-07-21T05:45:53.555Z,30.20
2023-07-21T05:48:20.510Z,30.50
2023-07-21T05:50:49.880Z,30.80
2023-07-21T05:53:17.104Z,30.60
2023-07-21T05:55:44.418Z,30.20
2023-07-21T05:58:11.584Z,30.20
2023-07-21T06:00:40.326Z,30.10
2023-07-21T06:03:07.936Z,30.30
2023-07-21T06:05:37.618Z,30.40
2023-07-21T06:08:08.215Z,30.10
2023-07-21T06:10:35.271Z,29.70
2023-07-21T06:13:02.312Z,29.80
2023-07-21T06:15:29.248Z,29.30
2023-07-21T06:17:56.883Z,28.50
2023-07-21T06:20:26.379Z,28.40
2023-07-21T06:22:57.463Z,28.20
2023-07-21T06:25:27.747Z,28.20
2023-07-21T06:27:54.685Z,28.00
2023-07-21T06:30:25.318Z,27.40
2023-07-21T06:32:52.498Z,27.50
2023-07-21T06:35:19.521Z,28.10
2023-07-21T06:37:48.863Z,28.20
2023-07-21T06:40:15.815Z,28.00
2023-07-21T06:42:45.387Z,27.70
2023-07-21T06:45:12.602Z,27.80
2023-07-21T06:47:39.579Z,26.90
2023-07-21T06:50:06.773Z,26.80
2023-07-21T06:52:33.991Z,26.60
2023-07-21T06:55:00.959Z,26.40
2023-07-21T06:57:28.840Z,26.10
2023-07-21T06:59:56.320Z,25.90
2023-07-21T07:02:23.314Z,26.10
2023-07-21T07:04:52.499Z,25.30
2023-07-21T07:07:19.728Z,25.60
2023-07-21T07:09:49.675Z,26.10
2023-07-21T07:12:16.632Z,25.60
2023-07-21T07:14:45.920Z,25.60
2023-07-21T07:17:14.074Z,25.90
2023-07-21T07:19:41.581Z,25.30
2023-07-21T07:22:10.689Z,25.00
2023-07-21T07:24:37.871Z,25.30
2023-07-21T07:27:04.995Z,25.70
2023-07-21T07:29:32.133Z,25.30
2023-07-21T07:31:59.553Z,25.20
2023-07-21T07:34:27.798Z,25.40
2023-07-21T07:36:55.650Z,25.50
2023-07-21T07:39:22.641Z,24.50
2023-07-21T07:41:51.399Z,24.40
2023-07-21T07:44:18.658Z,23.80
2023-07-21T07:46:45.818Z,23.80
2023-07-21T07:49:12.801Z,24.30
2023-07-21T07:51:40.392Z,23.50
2023-07-21T07:54:08.835Z,23.50
2023-07-21T07:56:36.078Z,23.20
2023-07-21T07:59:04.456Z,22.90
2023-07-21T08:01:31.497Z,23.00
2023-07-21T08:03:58.484Z,22.80
2023-07-21T08:06:26.419Z,22.20
2023-07-21T08:08:54.443Z,22.00
2023-07-21T08:11:21.340Z,21.60
2023-07-21T08:13:48.322Z,22.10
2023-07-21T08:16:16.501Z,21.80
2023-07-21T08:18:43.599Z,22.10
2023-07-21T08:21:21.692Z,22.60
2023-07-21T08:23:50.651Z,22.60
2023-07-21T08:26:19.572Z,22.20
2023-07-21T08:28:46.566Z,22.00
2023-07-21T08:31:15.416Z,21.70
2023-07-21T08:33:42.339Z,21.90
2023-07-21T08:36:12.124Z,22.40
2023-07-21T08:38:39.227Z,21.80
2023-07-21T08:41:14.230Z,21.30
2023-07-21T08:43:44.754Z,20.70
2023-07-21T08:46:11.808Z,20.20
2023-07-21T08:48:41.104Z,20.40
2023-07-21T08:51:08.454Z,21.20
2023-07-21T08:53:35.562Z,20.90
2023-07-21T08:56:03.702Z,21.30
2023-07-21T08:58:30.800Z,21.60
2023-07-21T09:00:59.101Z,21.60
2023-07-21T09:03:31.542Z,22.30
2023-07-21T09:06:01.210Z,22.50
2023-07-21T09:08:30.642Z,22.30
2023-07-21T09:10:59.779Z,21.40
2023-07-21T09:13:29.806Z,21.00
2023-07-21T09:15:59.060Z,21.00
2023-07-21T09:18:31.196Z,20.90
2023-07-21T09:20:58.977Z,20.60
2023-07-21T09:23:27.843Z,20.10
2023-07-21T09:25:57.196Z,19.40
2023-07-21T09:28:45.848Z,19.70
2023-07-21T09:31:14.859Z,20.00
2023-07-21T09:33:44.490Z,18.90
2023-07-21T09:36:17.193Z,19.10
2023-07-21T09:38:48.014Z,19.30
2023-07-21T09:41:17.246Z,18.70
2023-07-21T09:43:44.513Z,18.80
2023-07-21T09:48:43.398Z,19.20
2023-07-21T09:51:11.760Z,19.10
2023-07-21T09:53:41.228Z,19.20
2023-07-21T09:56:10.182Z,18.60
2023-07-21T09:59:03.493Z,18.70
2023-07-21T10:01:31.963Z,19.00
2023-07-21T10:03:59.849Z,19.10
2023-07-21T10:06:27.471Z,19.60
2023-07-21T10:08:54.929Z,19.60
2023-07-21T10:11:22.756Z,19.40
2023-07-21T10:13:50.005Z,19.20
2023-07-21T10:16:22.388Z,19.50
2023-07-21T10:19:16.032Z,19.50
2023-07-21T10:21:54.383Z,19.90
2023-07-21T10:24:34.359Z,20.10
2023-07-21T10:27:06.427Z,20.60
2023-07-21T10:29:34.388Z,20.60
2023-07-21T10:32:05.572Z,20.80
2023-07-21T10:34:42.072Z,21.40
2023-07-21T10:37:09.339Z,21.50
2023-07-21T10:39:46.974Z,21.80
2023-07-21T10:42:14.139Z,21.70
2023-07-21T10:44:44.723Z,21.50
2023-07-21T10:47:17.280Z,21.90
2023-07-21T10:49:44.779Z,22.70
2023-07-21T10:52:26.112Z,22.50
2023-07-21T10:54:57.917Z,22.50
2023-07-21T10:57:24.948Z,22.50
2023-07-21T10:59:55.315Z,22.50
2023-07-21T11:02:26.485Z,22.40
2023-07-21T11:04:53.522Z,22.20
2023-07-21T11:07:20.505Z,22.00
2023-07-21T11:09:48.841Z,21.90
2023-07-21T11:12:15.826Z,22.20
2023-07-21T11:14:43.156Z,22.10
2023-07-21T11:17:10.176Z,21.90
2023-07-21T11:19:37.150Z,21.60
2023-07-21T11:22:07.458Z,22.20
2023-07-21T11:24:35.073Z,21.80
2023-07-21T11:27:11.958Z,21.50
2023-07-21T11:29:43.352Z,21.40
2023-07-21T11:32:25.212Z,21.30
2023-07-21T11:35:03.355Z,21.70
2023-07-21T11:37:46.024Z,21.50
2023-07-21T11:40:20.798Z,22.20
2023-07-21T11:42:49.614Z,22.80
2023-07-21T11:45:36.458Z,23.00
2023-07-21T11:48:14.255Z,22.60
2023-07-21T11:50:48.659Z,23.50
2023-07-21T11:53:15.609Z,23.80
2023-07-21T11:55:42.657Z,23.90
2023-07-21T11:58:15.157Z,24.40
2023-07-21T12:00:43.842Z,24.50
2023-07-21T12:03:12.036Z,24.10
2023-07-21T12:05:39.809Z,24.10
2023-07-21T12:08:07.471Z,23.40
2023-07-21T12:10:34.637Z,23.40
2023-07-21T12:13:05.300Z,23.30
2023-07-21T12:15:33.121Z,23.00
2023-07-21T12:18:00.314Z,23.20
2023-07-21T12:20:27.724Z,23.10
2023-07-21T12:22:54.664Z,23.50
2023-07-21T12:25:21.812Z,23.30
2023-07-21T12:27:49.196Z,23.00
2023-07-21T12:30:17.298Z,23.20
2023-07-21T12:32:44.622Z,22.50
2023-07-21T12:35:11.855Z,22.80
2023-07-21T12:37:41.361Z,23.70
2023-07-21T12:40:13.563Z,24.30
2023-07-21T12:42:41.284Z,23.70
2023-07-21T12:45:08.985Z,23.70
2023-07-21T12:47:38.155Z,24.20
2023-07-21T12:50:06.164Z,24.70
2023-07-21T12:52:33.101Z,24.80
2023-07-21T12:55:00.054Z,24.50
2023-07-21T12:57:31.684Z,24.40
2023-07-21T12:59:58.709Z,23.80
2023-07-21T13:02:25.794Z,24.00
2023-07-21T13:04:53.216Z,23.90
2023-07-21T13:07:20.324Z,24.20
2023-07-21T13:09:47.410Z,24.20
2023-07-21T13:12:14.583Z,24.00
2023-07-21T13:14:41.769Z,24.10
2023-07-21T13:17:09.314Z,24.20
2023-07-21T13:19:36.527Z,24.40
2023-07-21T13:22:03.737Z,24.50
2023-07-21T13:24:30.848Z,24.80
2023-07-21T13:26:59.350Z,24.80
2023-07-21T13:29:27.171Z,24.70
2023-07-21T13:31:54.180Z,25.00
2023-07-21T13:34:21.350Z,24.80
2023-07-21T13:36:48.612Z,24.70
2023-07-21T13:39:16.418Z,25.10
2023-07-21T13:41:44.121Z,25.20
2023-07-21T13:44:11.240Z,24.80
2023-07-21T13:46:38.422Z,25.20
2023-07-21T13:49:05.714Z,25.60
2023-07-21T13:51:32.880Z,26.20
2023-07-21T13:53:59.821Z,26.20
2023-07-21T13:56:28.444Z,26.10
2023-07-21T13:58:55.794Z,25.70
2023-07-21T14:01:22.818Z,25.90
2023-07-21T14:03:49.944Z,25.80
2023-07-21T14:06:18.191Z,26.00
2023-07-21T14:08:45.806Z,26.20
2023-07-21T14:11:13.009Z,25.90
2023-07-21T14:13:40.027Z,25.40
2023-07-21T14:16:10.199Z,25.30
2023-07-21T14:18:37.678Z,25.00
2023-07-21T14:21:05.217Z,25.20
2023-07-21T14:23:32.370Z,24.40
2023-07-21T14:26:00.369Z,23.90
2023-07-21T14:28:28.131Z,23.90
2023-07-21T14:30:56.973Z,23.80
2023-07-21T14:33:23.972Z,23.80
2023-07-21T14:35:50.957Z,23.40
2023-07-21T14:38:20.937Z,22.90
2023-07-21T14:40:48.474Z,22.80
2023-07-21T14:43:15.549Z,23.40
2023-07-21T14:45:43.451Z,23.00
2023-07-21T14:48:10.674Z,22.50
2023-07-21T14:50:40.350Z,22.10
2023-07-21T14:53:08.290Z,21.90
2023-07-21T14:55:36.314Z,22.20
2023-07-21T14:58:03.770Z,21.60
2023-07-21T15:00:30.767Z,22.00
2023-07-21T15:02:58.245Z,22.00
2023-07-21T15:05:25.844Z,22.30
2023-07-21T15:07:52.868Z,23.10
2023-07-21T15:10:20.547Z,22.90
2023-07-21T15:12:47.499Z,22.50
2023-07-21T15:15:14.944Z,22.40
2023-07-21T15:17:42.311Z,22.00
2023-07-21T15:20:16.846Z,21.70
2023-07-21T15:22:46.170Z,21.50
2023-07-21T15:25:14.213Z,21.70
2023-07-21T15:27:41.782Z,21.70
2023-07-21T15:30:13.411Z,22.00
2023-07-21T15:32:41.124Z,22.20
2023-07-21T15:35:10.321Z,22.40
2023-07-21T15:37:37.329Z,22.90
2023-07-21T15:40:12.794Z,22.90
2023-07-21T15:42:43.833Z,22.90
2023-07-21T15:45:12.697Z,23.00
2023-07-21T15:47:39.952Z,23.20
2023-07-21T15:50:14.857Z,22.90
2023-07-21T15:52:42.867Z,23.00
2023-07-21T15:55:12.591Z,22.40
2023-07-21T15:57:40.415Z,21.70
2023-07-21T16:00:20.451Z,21.80
2023-07-21T16:02:48.455Z,22.10
2023-07-21T16:05:18.404Z,22.00
2023-07-21T16:07:46.565Z,22.00
2023-07-21T16:10:15.098Z,22.40
2023-07-21T16:12:42.691Z,23.00
2023-07-21T16:15:13.070Z,23.10
2023-07-21T16:17:40.286Z,23.60
2023-07-21T16:20:12.725Z,23.30
2023-07-21T16:22:43.709Z,23.00
2023-07-21T16:25:11.150Z,22.70
2023-07-21T16:27:38.306Z,22.80
2023-07-21T16:30:06.515Z,23.60
2023-07-21T16:32:33.600Z,24.00
2023-07-21T16:35:00.573Z,23.30
2023-07-21T16:37:27.542Z,23.30
2023-07-21T16:39:54.964Z,23.50
2023-07-21T16:42:22.151Z,23.20
2023-07-21T16:44:49.434Z,23.20
2023-07-21T16:47:16.464Z,23.20
2023-07-21T16:49:43.492Z,23.30
2023-07-21T16:52:10.589Z,23.20
2023-07-21T16:54:37.550Z,23.10
2023-07-21T16:57:05.184Z,23.60
2023-07-21T16:59:36.688Z,23.40
2023-07-21T17:02:07.162Z,23.40
2023-07-21T17:04:34.411Z,23.30
2023-07-21T17:07:01.451Z,23.20
2023-07-21T17:09:28.460Z,23.20
2023-07-21T17:11:55.507Z,23.10
2023-07-21T17:14:23.058Z,23.10
2023-07-21T17:16:50.113Z,23.00
2023-07-21T17:19:17.376Z,23.30
2023-07-21T17:21:44.623Z,23.60
2023-07-21T17:24:11.959Z,23.30
2023-07-21T17:26:39.024Z,23.20
2023-07-21T17:29:06.411Z,23.10
2023-07-21T17:31:33.425Z,23.00
2023-07-21T17:34:00.426Z,23.00
2023-07-21T17:36:27.931Z,23.10
2023-07-21T17:38:54.873Z,23.10
2023-07-21T17:41:22.353Z,23.10
2023-07-21T17:43:49.348Z,23.00
2023-07-21T17:46:16.595Z,23.00
2023-07-21T17:48:43.704Z,22.90
2023-07-21T17:51:10.937Z,22.80
2023-07-21T17:53:37.965Z,23.10
2023-07-21T17:56:05.582Z,23.10
2023-07-21T17:58:32.693Z,23.30
2023-07-21T18:00:59.639Z,23.60
2023-07-21T18:03:27.068Z,23.60
2023-07-21T18:05:54.688Z,23.70
2023-07-21T18:08:21.676Z,23.80
2023-07-21T18:10:50.097Z,23.80
2023-07-21T18:13:26.393Z,23.70
2023-07-21T18:15:53.975Z,24.00
2023-07-21T18:18:22.717Z,23.90
2023-07-21T18:20:49.748Z,24.00
2023-07-21T18:23:16.770Z,24.00
2023-07-21T18:25:49.987Z,24.00
2023-07-21T18:28:16.969Z,23.80
2023-07-21T18:30:44.121Z,23.70
2023-07-21T18:33:12.456Z,24.30
2023-07-21T18:35:39.486Z,23.70
2023-07-21T18:38:06.560Z,23.80
2023-07-21T18:40:33.973Z,23.80
2023-07-21T18:43:01.130Z,23.80
2023-07-21T18:45:29.566Z,23.80
2023-07-21T18:47:56.656Z,23.80
2023-07-21T18:50:24.014Z,23.80
2023-07-21T18:52:52.269Z,23.90
2023-07-21T18:55:21.923Z,23.80
2023-07-21T18:57:49.878Z,23.70
2023-07-21T19:00:17.522Z,23.70
2023-07-21T19:02:44.766Z,23.80
2023-07-21T19:05:11.897Z,23.90
2023-07-21T19:07:39.465Z,24.00
2023-07-21T19:10:07.614Z,23.90
2023-07-21T19:12:34.668Z,23.90
2023-07-21T19:15:02.576Z,24.10
2023-07-21T19:17:30.119Z,24.10
2023-07-21T19:19:57.206Z,24.80
2023-07-21T19:22:24.260Z,24.40
2023-07-21T19:24:51.632Z,24.50
2023-07-21T19:27:18.704Z,24.40
2023-07-21T19:29:46.584Z,24.50
2023-07-21T19:32:13.814Z,24.60
2023-07-21T19:34:41.415Z,24.60
2023-07-21T19:37:12.093Z,24.30
2023-07-21T19:39:39.341Z,24.60
2023-07-21T19:42:06.727Z,24.60
2023-07-21T19:44:37.905Z,24.30
2023-07-21T19:47:06.345Z,24.30
2023-07-21T19:49:33.986Z,24.40
2023-07-21T19:52:03.688Z,24.40
2023-07-21T19:54:30.993Z,24.40
2023-07-21T19:56:57.933Z,24.30
2023-07-21T19:59:25.598Z,24.40
2023-07-21T20:01:52.830Z,24.40
2023-07-21T20:04:19.896Z,24.50
2023-07-21T20:06:46.992Z,24.50
2023-07-21T20:09:14.185Z,24.40
2023-07-21T20:11:43.659Z,24.50
2023-07-21T20:14:10.641Z,24.80
2023-07-21T20:16:37.644Z,25.10
2023-07-21T20:19:04.713Z,25.30
2023-07-21T20:21:31.881Z,25.60
2023-07-21T20:23:58.899Z,25.80
2023-07-21T20:26:26.331Z,25.70
2023-07-21T20:28:53.574Z,25.50
2023-07-21T20:31:20.881Z,25.60
2023-07-21T20:33:48.072Z,25.80
2023-07-21T20:36:15.036Z,25.90
2023-07-21T20:38:42.065Z,25.60
2023-07-21T20:41:09.651Z,25.60
2023-07-21T20:43:37.508Z,25.90
2023-07-21T20:46:04.583Z,25.70
2023-07-21T20:48:31.594Z,25.80
2023-07-21T20:50:58.779Z,25.60
2023-07-21T20:53:26.599Z,25.60
2023-07-21T20:55:54.887Z,25.50
2023-07-21T20:58:22.744Z,25.80
2023-07-21T21:00:58.357Z,25.70
2023-07-21T21:03:25.565Z,25.80
2023-07-21T21:06:00.021Z,25.60
2023-07-21T21:08:28.852Z,25.40
2023-07-21T21:10:55.924Z,25.40
2023-07-21T21:13:23.172Z,25.50
2023-07-21T21:15:52.545Z,25.30
2023-07-21T21:18:19.603Z,25.50
2023-07-21T21:20:46.685Z,26.30
2023-07-21T21:23:14.125Z,25.90
2023-07-21T21:25:41.140Z,25.90
2023-07-21T21:28:11.539Z,26.00
2023-07-21T21:30:39.826Z,26.20
2023-07-21T21:33:07.729Z,26.20
2023-07-21T21:35:34.705Z,26.00
2023-07-21T21:38:01.690Z,26.00
2023-07-21T21:40:32.125Z,26.00
2023-07-21T21:42:59.318Z,25.80
2023-07-21T21:45:26.468Z,25.90
2023-07-21T21:47:53.343Z,25.70
2023-07-21T21:50:20.468Z,25.80
2023-07-21T21:52:47.524Z,26.00
2023-07-21T21:55:14.613Z,26.30
2023-07-21T21:57:43.620Z,27.00
2023-07-21T22:00:11.653Z,27.20
2023-07-21T22:02:38.757Z,27.20
2023-07-21T22:05:06.297Z,27.20
2023-07-21T22:07:33.595Z,27.30
2023-07-21T22:10:01.226Z,27.40
2023-07-21T22:12:28.162Z,27.60
2023-07-21T22:14:57.321Z,28.10
2023-07-21T22:17:25.482Z,28.30
2023-07-21T22:20:08.637Z,28.30
2023-07-21T22:22:37.978Z,29.20
2023-07-21T22:25:05.258Z,28.80
2023-07-21T22:27:33.472Z,28.20
2023-07-21T22:30:00.681Z,28.40
2023-07-21T22:32:28.226Z,27.80
2023-07-21T22:34:55.164Z,27.70
2023-07-21T22:37:22.159Z,27.80
2023-07-21T22:39:49.485Z,27.70
2023-07-21T22:42:16.581Z,27.10
2023-07-21T22:44:43.663Z,27.80
2023-07-21T22:47:12.061Z,27.90
2023-07-21T22:49:39.270Z,27.80
2023-07-21T22:52:06.939Z,27.90
2023-07-21T22:54:34.190Z,28.00
2023-07-21T22:57:01.177Z,27.80
2023-07-21T22:59:28.167Z,27.60
2023-07-21T23:01:55.325Z,27.80
2023-07-21T23:04:23.523Z,27.80
2023-07-21T23:06:50.726Z,27.80
2023-07-21T23:09:17.647Z,27.90
2023-07-21T23:11:44.845Z,27.80
2023-07-21T23:14:11.972Z,27.90
2023-07-21T23:16:40.176Z,28.10
2023-07-21T23:19:07.545Z,28.20
2023-07-21T23:21:34.541Z,28.20
2023-07-21T23:24:01.948Z,28.50
2023-07-21T23:26:30.416Z,28.40
2023-07-21T23:28:57.577Z,28.40
2023-07-21T23:31:24.859Z,28.30
2023-07-21T23:33:53.089Z,28.00
2023-07-21T23:36:20.174Z,27.90
2023-07-21T23:38:47.422Z,28.00
2023-07-21T23:41:14.396Z,28.10
2023-07-21T23:43:41.326Z,28.10
2023-07-21T23:46:08.612Z,28.20
2023-07-21T23:48:35.558Z,28.10
2023-07-21T23:51:02.877Z,28.80
2023-07-21T23:53:30.145Z,28.10
2023-07-21T23:55:57.113Z,28.40
2023-07-21T23:58:24.049Z,28.20
